sensor_id;sensor_type;location;lat;lon;timestamp;pressure;altitude;pressure_sealevel;temperature
37452;BMP280;23314;51.114;6.900;2023-01-28T00:00:29;102445.50;;;3.63
37452;BMP280;23314;51.114;6.900;2023-01-28T00:02:54;102446.22;;;3.55
37452;BMP280;23314;51.114;6.900;2023-01-28T00:05:20;102444.84;;;3.49
37452;BMP280;23314;51.114;6.900;2023-01-28T00:07:50;102443.44;;;3.43
37452;BMP280;23314;51.114;6.900;2023-01-28T00:10:16;102449.16;;;3.36
37452;BMP280;23314;51.114;6.900;2023-01-28T00:12:41;102446.19;;;3.29
37452;BMP280;23314;51.114;6.900;2023-01-28T00:15:07;102448.19;;;3.23
37452;BMP280;23314;51.114;6.900;2023-01-28T00:17:32;102449.38;;;3.17
37452;BMP280;23314;51.114;6.900;2023-01-28T00:19:57;102446.56;;;3.13
37452;BMP280;23314;51.114;6.900;2023-01-28T00:22:23;102450.09;;;3.09
37452;BMP280;23314;51.114;6.900;2023-01-28T00:24:48;102445.75;;;3.04
37452;BMP280;23314;51.114;6.900;2023-01-28T00:27:13;102433.50;;;2.99
37452;BMP280;23314;51.114;6.900;2023-01-28T00:29:39;102431.16;;;2.98
37452;BMP280;23314;51.114;6.900;2023-01-28T00:32:04;102428.97;;;3.00
37452;BMP280;23314;51.114;6.900;2023-01-28T00:34:29;102434.00;;;3.10
37452;BMP280;23314;51.114;6.900;2023-01-28T00:36:55;102430.31;;;3.20
37452;BMP280;23314;51.114;6.900;2023-01-28T00:39:24;102431.91;;;3.30
37452;BMP280;23314;51.114;6.900;2023-01-28T00:41:50;102430.22;;;3.34
37452;BMP280;23314;51.114;6.900;2023-01-28T00:44:17;102431.13;;;3.38
37452;BMP280;23314;51.114;6.900;2023-01-28T00:46:42;102437.06;;;3.44
37452;BMP280;23314;51.114;6.900;2023-01-28T00:49:08;102423.56;;;3.45
37452;BMP280;23314;51.114;6.900;2023-01-28T00:51:34;102430.25;;;3.43
37452;BMP280;23314;51.114;6.900;2023-01-28T00:53:59;102434.56;;;3.39
37452;BMP280;23314;51.114;6.900;2023-01-28T00:56:24;102439.97;;;3.33
37452;BMP280;23314;51.114;6.900;2023-01-28T00:58:49;102434.84;;;3.28
37452;BMP280;23314;51.114;6.900;2023-01-28T01:01:18;102428.75;;;3.19
37452;BMP280;23314;51.114;6.900;2023-01-28T01:03:44;102425.78;;;3.12
37452;BMP280;23314;51.114;6.900;2023-01-28T01:06:10;102423.56;;;3.05
37452;BMP280;23314;51.114;6.900;2023-01-28T01:08:36;102433.50;;;2.99
37452;BMP280;23314;51.114;6.900;2023-01-28T01:11:04;102434.69;;;2.93
37452;BMP280;23314;51.114;6.900;2023-01-28T01:13:31;102434.63;;;2.84
37452;BMP280;23314;51.114;6.900;2023-01-28T01:16:04;102431.63;;;2.77
37452;BMP280;23314;51.114;6.900;2023-01-28T01:18:30;102433.91;;;2.70
37452;BMP280;23314;51.114;6.900;2023-01-28T01:20:55;102449.25;;;2.68
37452;BMP280;23314;51.114;6.900;2023-01-28T01:23:27;102445.19;;;2.62
37452;BMP280;23314;51.114;6.900;2023-01-28T01:25:53;102442.84;;;2.60
37452;BMP280;23314;51.114;6.900;2023-01-28T01:28:18;102453.22;;;2.56
37452;BMP280;23314;51.114;6.900;2023-01-28T01:30:45;102443.75;;;2.55
37452;BMP280;23314;51.114;6.900;2023-01-28T01:33:10;102445.09;;;2.53
37452;BMP280;23314;51.114;6.900;2023-01-28T01:35:36;102446.50;;;2.50
37452;BMP280;23314;51.114;6.900;2023-01-28T01:38:01;102439.19;;;2.47
37452;BMP280;23314;51.114;6.900;2023-01-28T01:40:28;102439.75;;;2.44
37452;BMP280;23314;51.114;6.900;2023-01-28T01:42:53;102434.81;;;2.42
37452;BMP280;23314;51.114;6.900;2023-01-28T01:45:19;102443.00;;;2.41
37452;BMP280;23314;51.114;6.900;2023-01-28T01:47:47;102443.88;;;2.36
37452;BMP280;23314;51.114;6.900;2023-01-28T01:50:30;102441.09;;;2.33
37452;BMP280;23314;51.114;6.900;2023-01-28T01:53:03;102444.16;;;2.26
37452;BMP280;23314;51.114;6.900;2023-01-28T01:55:32;102446.00;;;2.25
37452;BMP280;23314;51.114;6.900;2023-01-28T01:58:02;102445.03;;;2.21
37452;BMP280;23314;51.114;6.900;2023-01-28T02:00:29;102442.50;;;2.16
37452;BMP280;23314;51.114;6.900;2023-01-28T02:02:54;102431.78;;;2.12
37452;BMP280;23314;51.114;6.900;2023-01-28T02:05:21;102439.19;;;2.10
37452;BMP280;23314;51.114;6.900;2023-01-28T02:07:49;102448.75;;;2.06
37452;BMP280;23314;51.114;6.900;2023-01-28T02:10:16;102446.91;;;2.07
37452;BMP280;23314;51.114;6.900;2023-01-28T02:12:46;102451.38;;;2.06
37452;BMP280;23314;51.114;6.900;2023-01-28T02:15:16;102459.00;;;2.08
37452;BMP280;23314;51.114;6.900;2023-01-28T02:17:42;102454.00;;;2.06
37452;BMP280;23314;51.114;6.900;2023-01-28T02:20:21;102462.88;;;2.10
37452;BMP280;23314;51.114;6.900;2023-01-28T02:23:14;102462.03;;;2.15
37452;BMP280;23314;51.114;6.900;2023-01-28T02:26:03;102470.75;;;2.24
37452;BMP280;23314;51.114;6.900;2023-01-28T02:28:57;102470.72;;;2.38
37452;BMP280;23314;51.114;6.900;2023-01-28T02:31:38;102467.75;;;2.54
37452;BMP280;23314;51.114;6.900;2023-01-28T02:34:10;102476.41;;;2.68
37452;BMP280;23314;51.114;6.900;2023-01-28T02:36:59;102474.78;;;2.81
37452;BMP280;23314;51.114;6.900;2023-01-28T02:39:33;102472.69;;;2.92
37452;BMP280;23314;51.114;6.900;2023-01-28T02:42:09;102477.22;;;3.00
37452;BMP280;23314;51.114;6.900;2023-01-28T02:44:35;102473.34;;;3.07
37452;BMP280;23314;51.114;6.900;2023-01-28T02:47:01;102472.91;;;3.13
37452;BMP280;23314;51.114;6.900;2023-01-28T02:49:49;102482.28;;;3.19
37452;BMP280;23314;51.114;6.900;2023-01-28T02:58:00;102484.81;;;3.33
37452;BMP280;23314;51.114;6.900;2023-01-28T03:00:36;102486.09;;;3.36
37452;BMP280;23314;51.114;6.900;2023-01-28T03:03:15;102486.72;;;3.42
37452;BMP280;23314;51.114;6.900;2023-01-28T03:05:48;102497.44;;;3.45
37452;BMP280;23314;51.114;6.900;2023-01-28T03:08:45;102487.69;;;3.46
37452;BMP280;23314;51.114;6.900;2023-01-28T03:11:34;102486.28;;;3.48
37452;BMP280;23314;51.114;6.900;2023-01-28T03:14:19;102497.59;;;3.49
37452;BMP280;23314;51.114;6.900;2023-01-28T03:17:04;102493.59;;;3.52
37452;BMP280;23314;51.114;6.900;2023-01-28T03:19:51;102492.22;;;3.54
37452;BMP280;23314;51.114;6.900;2023-01-28T03:22:36;102495.00;;;3.58
37452;BMP280;23314;51.114;6.900;2023-01-28T03:25:23;102487.09;;;3.58
37452;BMP280;23314;51.114;6.900;2023-01-28T03:28:12;102490.22;;;3.60
37452;BMP280;23314;51.114;6.900;2023-01-28T03:31:02;102490.66;;;3.62
37452;BMP280;23314;51.114;6.900;2023-01-28T03:33:49;102496.72;;;3.62
37452;BMP280;23314;51.114;6.900;2023-01-28T03:36:34;102486.34;;;3.66
37452;BMP280;23314;51.114;6.900;2023-01-28T03:39:21;102487.13;;;3.67
37452;BMP280;23314;51.114;6.900;2023-01-28T03:42:09;102483.41;;;3.68
37452;BMP280;23314;51.114;6.900;2023-01-28T03:44:34;102487.59;;;3.69
37452;BMP280;23314;51.114;6.900;2023-01-28T03:47:24;102492.56;;;3.70
37452;BMP280;23314;51.114;6.900;2023-01-28T03:49:51;102489.31;;;3.73
37452;BMP280;23314;51.114;6.900;2023-01-28T03:52:19;102496.47;;;3.73
37452;BMP280;23314;51.114;6.900;2023-01-28T03:54:45;102491.50;;;3.71
37452;BMP280;23314;51.114;6.900;2023-01-28T03:57:15;102494.13;;;3.71
37452;BMP280;23314;51.114;6.900;2023-01-28T03:59:40;102494.44;;;3.70
37452;BMP280;23314;51.114;6.900;2023-01-28T04:02:06;102496.28;;;3.69
37452;BMP280;23314;51.114;6.900;2023-01-28T04:04:32;102499.25;;;3.68
37452;BMP280;23314;51.114;6.900;2023-01-28T04:06:58;102503.13;;;3.70
37452;BMP280;23314;51.114;6.900;2023-01-28T04:09:24;102505.94;;;3.74
37452;BMP280;23314;51.114;6.900;2023-01-28T04:11:49;102504.84;;;3.75
37452;BMP280;23314;51.114;6.900;2023-01-28T04:14:16;102500.84;;;3.77
37452;BMP280;23314;51.114;6.900;2023-01-28T04:16:41;102500.53;;;3.79
37452;BMP280;23314;51.114;6.900;2023-01-28T04:19:08;102497.13;;;3.78
37452;BMP280;23314;51.114;6.900;2023-01-28T04:21:33;102497.56;;;3.80
37452;BMP280;23314;51.114;6.900;2023-01-28T04:23:58;102510.75;;;3.80
37452;BMP280;23314;51.114;6.900;2023-01-28T04:26:24;102509.69;;;3.81
37452;BMP280;23314;51.114;6.900;2023-01-28T04:28:49;102521.00;;;3.82
37452;BMP280;23314;51.114;6.900;2023-01-28T04:31:14;102507.81;;;3.82
37452;BMP280;23314;51.114;6.900;2023-01-28T04:33:40;102512.78;;;3.84
37452;BMP280;23314;51.114;6.900;2023-01-28T04:36:05;102513.09;;;3.82
37452;BMP280;23314;51.114;6.900;2023-01-28T04:38:30;102522.88;;;3.81
37452;BMP280;23314;51.114;6.900;2023-01-28T04:40:56;102525.19;;;3.83
37452;BMP280;23314;51.114;6.900;2023-01-28T04:43:21;102525.53;;;3.81
37452;BMP280;23314;51.114;6.900;2023-01-28T04:45:47;102528.63;;;3.84
37452;BMP280;23314;51.114;6.900;2023-01-28T04:48:13;102533.13;;;3.83
37452;BMP280;23314;51.114;6.900;2023-01-28T04:50:39;102543.41;;;3.85
37452;BMP280;23314;51.114;6.900;2023-01-28T04:53:04;102537.00;;;3.86
37452;BMP280;23314;51.114;6.900;2023-01-28T04:55:30;102540.75;;;3.85
37452;BMP280;23314;51.114;6.900;2023-01-28T04:57:55;102536.84;;;3.82
37452;BMP280;23314;51.114;6.900;2023-01-28T05:00:20;102536.06;;;3.81
37452;BMP280;23314;51.114;6.900;2023-01-28T05:02:46;102534.53;;;3.80
37452;BMP280;23314;51.114;6.900;2023-01-28T05:05:11;102539.03;;;3.80
37452;BMP280;23314;51.114;6.900;2023-01-28T05:07:36;102538.56;;;3.78
37452;BMP280;23314;51.114;6.900;2023-01-28T05:10:02;102535.75;;;3.74
37452;BMP280;23314;51.114;6.900;2023-01-28T05:12:27;102520.25;;;3.73
37452;BMP280;23314;51.114;6.900;2023-01-28T05:14:54;102529.34;;;3.67
37452;BMP280;23314;51.114;6.900;2023-01-28T05:17:19;102530.13;;;3.67
37452;BMP280;23314;51.114;6.900;2023-01-28T05:19:45;102538.53;;;3.69
37452;BMP280;23314;51.114;6.900;2023-01-28T05:22:10;102533.25;;;3.69
37452;BMP280;23314;51.114;6.900;2023-01-28T05:24:36;102538.84;;;3.68
37452;BMP280;23314;51.114;6.900;2023-01-28T05:27:01;102536.97;;;3.68
37452;BMP280;23314;51.114;6.900;2023-01-28T05:29:26;102534.63;;;3.67
37452;BMP280;23314;51.114;6.900;2023-01-28T05:31:51;102532.75;;;3.67
37452;BMP280;23314;51.114;6.900;2023-01-28T05:34:17;102524.84;;;3.67
37452;BMP280;23314;51.114;6.900;2023-01-28T05:36:42;102526.53;;;3.63
37452;BMP280;23314;51.114;6.900;2023-01-28T05:39:07;102526.53;;;3.63
37452;BMP280;23314;51.114;6.900;2023-01-28T05:41:33;102529.16;;;3.63
37452;BMP280;23314;51.114;6.900;2023-01-28T05:44:00;102534.16;;;3.64
37452;BMP280;23314;51.114;6.900;2023-01-28T05:46:25;102536.50;;;3.66
37452;BMP280;23314;51.114;6.900;2023-01-28T05:48:51;102538.03;;;3.67
37452;BMP280;23314;51.114;6.900;2023-01-28T05:51:16;102547.84;;;3.67
37452;BMP280;23314;51.114;6.900;2023-01-28T05:53:41;102547.84;;;3.67
37452;BMP280;23314;51.114;6.900;2023-01-28T05:56:07;102555.75;;;3.67
37452;BMP280;23314;51.114;6.900;2023-01-28T05:58:32;102554.97;;;3.66
37452;BMP280;23314;51.114;6.900;2023-01-28T06:00:58;102563.66;;;3.67
37452;BMP280;23314;51.114;6.900;2023-01-28T06:03:23;102564.16;;;3.69
37452;BMP280;23314;51.114;6.900;2023-01-28T06:05:49;102572.34;;;3.67
37452;BMP280;23314;51.114;6.900;2023-01-28T06:08:14;102574.22;;;3.67
37452;BMP280;23314;51.114;6.900;2023-01-28T06:10:39;102571.59;;;3.67
37452;BMP280;23314;51.114;6.900;2023-01-28T06:13:05;102559.75;;;3.64
37452;BMP280;23314;51.114;6.900;2023-01-28T06:15:31;102564.28;;;3.63
37452;BMP280;23314;51.114;6.900;2023-01-28T06:17:56;102564.09;;;3.60
37452;BMP280;23314;51.114;6.900;2023-01-28T06:20:21;102571.22;;;3.59
37452;BMP280;23314;51.114;6.900;2023-01-28T06:22:51;102574.66;;;3.60
37452;BMP280;23314;51.114;6.900;2023-01-28T06:25:17;102573.28;;;3.62
37452;BMP280;23314;51.114;6.900;2023-01-28T06:27:43;102576.69;;;3.63
37452;BMP280;23314;51.114;6.900;2023-01-28T06:30:09;102568.31;;;3.61
37452;BMP280;23314;51.114;6.900;2023-01-28T06:32:34;102574.94;;;3.58
37452;BMP280;23314;51.114;6.900;2023-01-28T06:35:00;102576.34;;;3.56
37452;BMP280;23314;51.114;6.900;2023-01-28T06:37:25;102570.63;;;3.54
37452;BMP280;23314;51.114;6.900;2023-01-28T06:39:50;102564.84;;;3.52
37452;BMP280;23314;51.114;6.900;2023-01-28T06:42:16;102563.91;;;3.47
37452;BMP280;23314;51.114;6.900;2023-01-28T06:44:41;102563.13;;;3.47
37452;BMP280;23314;51.114;6.900;2023-01-28T06:47:06;102561.56;;;3.46
37452;BMP280;23314;51.114;6.900;2023-01-28T06:49:33;102561.25;;;3.47
37452;BMP280;23314;51.114;6.900;2023-01-28T06:51:58;102568.09;;;3.48
37452;BMP280;23314;51.114;6.900;2023-01-28T06:54:23;102576.00;;;3.48
37452;BMP280;23314;51.114;6.900;2023-01-28T06:56:49;102583.63;;;3.50
37452;BMP280;23314;51.114;6.900;2023-01-28T06:59:14;102576.00;;;3.48
37452;BMP280;23314;51.114;6.900;2023-01-28T07:01:39;102586.88;;;3.47
37452;BMP280;23314;51.114;6.900;2023-01-28T07:04:05;102578.16;;;3.46
37452;BMP280;23314;51.114;6.900;2023-01-28T07:06:30;102577.41;;;3.46
37452;BMP280;23314;51.114;6.900;2023-01-28T07:08:55;102583.28;;;3.43
37452;BMP280;23314;51.114;6.900;2023-01-28T07:11:20;102587.28;;;3.40
37452;BMP280;23314;51.114;6.900;2023-01-28T07:13:46;102582.19;;;3.44
37452;BMP280;23314;51.114;6.900;2023-01-28T07:16:12;102585.91;;;3.43
37452;BMP280;23314;51.114;6.900;2023-01-28T07:18:37;102575.63;;;3.41
37452;BMP280;23314;51.114;6.900;2023-01-28T07:21:03;102573.81;;;3.42
37452;BMP280;23314;51.114;6.900;2023-01-28T07:23:28;102582.00;;;3.40
37452;BMP280;23314;51.114;6.900;2023-01-28T07:25:53;102569.72;;;3.35
37452;BMP280;23314;51.114;6.900;2023-01-28T07:28:19;102568.94;;;3.35
37452;BMP280;23314;51.114;6.900;2023-01-28T07:30:52;102567.06;;;3.35
37452;BMP280;23314;51.114;6.900;2023-01-28T07:33:17;102563.38;;;3.37
37452;BMP280;23314;51.114;6.900;2023-01-28T07:35:44;102568.94;;;3.35
37452;BMP280;23314;51.114;6.900;2023-01-28T07:38:09;102575.31;;;3.34
37452;BMP280;23314;51.114;6.900;2023-01-28T07:40:34;102581.34;;;3.34
37452;BMP280;23314;51.114;6.900;2023-01-28T07:43:00;102580.28;;;3.35
37452;BMP280;23314;51.114;6.900;2023-01-28T07:45:25;102582.91;;;3.35
37452;BMP280;23314;51.114;6.900;2023-01-28T07:47:59;102585.22;;;3.37
37452;BMP280;23314;51.114;6.900;2023-01-28T07:50:26;102590.22;;;3.39
37452;BMP280;23314;51.114;6.900;2023-01-28T07:52:53;102593.34;;;3.41
37452;BMP280;23314;51.114;6.900;2023-01-28T07:55:18;102580.31;;;3.44
37452;BMP280;23314;51.114;6.900;2023-01-28T07:57:54;102585.31;;;3.46
37452;BMP280;23314;51.114;6.900;2023-01-28T08:00:22;102594.47;;;3.48
37452;BMP280;23314;51.114;6.900;2023-01-28T08:02:48;102589.97;;;3.49
37452;BMP280;23314;51.114;6.900;2023-01-28T08:05:18;102586.88;;;3.47
37452;BMP280;23314;51.114;6.900;2023-01-28T08:07:44;102598.19;;;3.47
37452;BMP280;23314;51.114;6.900;2023-01-28T08:10:15;102597.44;;;3.47
37452;BMP280;23314;51.114;6.900;2023-01-28T08:12:49;102603.16;;;3.49
37452;BMP280;23314;51.114;6.900;2023-01-28T08:15:14;102608.63;;;3.53
37452;BMP280;23314;51.114;6.900;2023-01-28T08:17:39;102612.22;;;3.57
37452;BMP280;23314;51.114;6.900;2023-01-28T08:20:05;102612.38;;;3.60
37452;BMP280;23314;51.114;6.900;2023-01-28T08:22:31;102612.25;;;3.65
37452;BMP280;23314;51.114;6.900;2023-01-28T08:24:56;102622.72;;;3.71
37452;BMP280;23314;51.114;6.900;2023-01-28T08:27:22;102628.63;;;3.76
37452;BMP280;23314;51.114;6.900;2023-01-28T08:29:48;102634.53;;;3.82
37452;BMP280;23314;51.114;6.900;2023-01-28T08:32:13;102632.97;;;3.81
37452;BMP280;23314;51.114;6.900;2023-01-28T08:34:38;102631.63;;;3.84
37452;BMP280;23314;51.114;6.900;2023-01-28T08:37:04;102637.34;;;3.86
37452;BMP280;23314;51.114;6.900;2023-01-28T08:39:30;102634.91;;;3.89
37452;BMP280;23314;51.114;6.900;2023-01-28T08:41:55;102637.53;;;3.89
37452;BMP280;23314;51.114;6.900;2023-01-28T08:44:21;102645.16;;;3.91
37452;BMP280;23314;51.114;6.900;2023-01-28T08:46:46;102651.69;;;3.93
37452;BMP280;23314;51.114;6.900;2023-01-28T08:49:11;102651.69;;;3.93
37452;BMP280;23314;51.114;6.900;2023-01-28T08:51:36;102650.63;;;3.94
37452;BMP280;23314;51.114;6.900;2023-01-28T08:54:02;102652.94;;;3.96
37452;BMP280;23314;51.114;6.900;2023-01-28T08:56:27;102645.19;;;4.00
37452;BMP280;23314;51.114;6.900;2023-01-28T08:58:54;102646.47;;;4.02
37452;BMP280;23314;51.114;6.900;2023-01-28T09:01:19;102649.09;;;4.02
37452;BMP280;23314;51.114;6.900;2023-01-28T09:03:45;102658.13;;;4.10
37452;BMP280;23314;51.114;6.900;2023-01-28T09:06:10;102660.75;;;4.10
37452;BMP280;23314;51.114;6.900;2023-01-28T09:08:35;102664.66;;;4.12
37452;BMP280;23314;51.114;6.900;2023-01-28T09:11:00;102670.59;;;4.18
37452;BMP280;23314;51.114;6.900;2023-01-28T09:13:27;102672.16;;;4.19
37452;BMP280;23314;51.114;6.900;2023-01-28T09:15:54;102668.84;;;4.14
37452;BMP280;23314;51.114;6.900;2023-01-28T09:18:19;102691.75;;;4.18
37452;BMP280;23314;51.114;6.900;2023-01-28T09:20:45;102697.63;;;4.15
37452;BMP280;23314;51.114;6.900;2023-01-28T09:23:11;102701.22;;;4.19
37452;BMP280;23314;51.114;6.900;2023-01-28T09:25:36;102693.31;;;4.19
37452;BMP280;23314;51.114;6.900;2023-01-28T09:28:02;102708.19;;;4.15
37452;BMP280;23314;51.114;6.900;2023-01-28T09:30:28;102704.88;;;4.09
37452;BMP280;23314;51.114;6.900;2023-01-28T09:32:55;102711.13;;;4.14
37452;BMP280;23314;51.114;6.900;2023-01-28T09:35:21;102707.41;;;4.15
37452;BMP280;23314;51.114;6.900;2023-01-28T09:37:46;102705.84;;;4.14
37452;BMP280;23314;51.114;6.900;2023-01-28T09:40:18;102706.31;;;4.16
37452;BMP280;23314;51.114;6.900;2023-01-28T09:43:00;102708.06;;;4.20
37452;BMP280;23314;51.114;6.900;2023-01-28T09:45:45;102713.16;;;4.17
37452;BMP280;23314;51.114;6.900;2023-01-28T09:48:19;102710.84;;;4.15
37452;BMP280;23314;51.114;6.900;2023-01-28T09:50:48;102711.47;;;4.21
37452;BMP280;23314;51.114;6.900;2023-01-28T09:53:19;102703.41;;;4.26
37452;BMP280;23314;51.114;6.900;2023-01-28T09:55:47;102705.59;;;4.33
37452;BMP280;23314;51.114;6.900;2023-01-28T09:58:15;102722.72;;;4.35
37452;BMP280;23314;51.114;6.900;2023-01-28T10:09:20;102723.66;;;4.39
37452;BMP280;23314;51.114;6.900;2023-01-28T10:17:32;102709.97;;;4.37
37452;BMP280;23314;51.114;6.900;2023-01-28T10:23:00;102719.78;;;4.46
37452;BMP280;23314;51.114;6.900;2023-01-28T10:25:30;102719.78;;;4.46
37452;BMP280;23314;51.114;6.900;2023-01-28T10:27:56;102714.97;;;4.48
37452;BMP280;23314;51.114;6.900;2023-01-28T10:30:24;102705.84;;;4.45
37452;BMP280;23314;51.114;6.900;2023-01-28T10:32:59;102708.78;;;4.43
37452;BMP280;23314;51.114;6.900;2023-01-28T10:35:25;102713.41;;;4.38
37452;BMP280;23314;51.114;6.900;2023-01-28T10:37:59;102713.91;;;4.40
37452;BMP280;23314;51.114;6.900;2023-01-28T10:40:25;102711.66;;;4.33
37452;BMP280;23314;51.114;6.900;2023-01-28T10:42:51;102710.53;;;4.25
37452;BMP280;23314;51.114;6.900;2023-01-28T10:45:22;102712.69;;;4.15
37452;BMP280;23314;51.114;6.900;2023-01-28T10:48:02;102710.34;;;4.13
37452;BMP280;23314;51.114;6.900;2023-01-28T10:50:29;102703.69;;;4.24
37452;BMP280;23314;51.114;6.900;2023-01-28T10:53:04;102698.75;;;4.32
37452;BMP280;23314;51.114;6.900;2023-01-28T10:55:35;102714.00;;;4.35
37452;BMP280;23314;51.114;6.900;2023-01-28T10:58:16;102705.66;;;4.41
37452;BMP280;23314;51.114;6.900;2023-01-28T11:00:42;102717.78;;;4.51
37452;BMP280;23314;51.114;6.900;2023-01-28T11:03:16;102716.91;;;4.65
37452;BMP280;23314;51.114;6.900;2023-01-28T11:05:49;102712.41;;;4.74
37452;BMP280;23314;51.114;6.900;2023-01-28T11:08:16;102717.72;;;4.83
37452;BMP280;23314;51.114;6.900;2023-01-28T11:10:43;102714.91;;;4.88
37452;BMP280;23314;51.114;6.900;2023-01-28T11:15:46;102733.75;;;4.95
37452;BMP280;23314;51.114;6.900;2023-01-28T11:18:18;102720.66;;;4.90
37452;BMP280;23314;51.114;6.900;2023-01-28T11:20:50;102716.78;;;4.87
37452;BMP280;23314;51.114;6.900;2023-01-28T11:23:18;102719.75;;;4.95
37452;BMP280;23314;51.114;6.900;2023-01-28T11:25:45;102721.63;;;4.94
37452;BMP280;23314;51.114;6.900;2023-01-28T11:28:18;102725.03;;;4.95
37452;BMP280;23314;51.114;6.900;2023-01-28T11:30:50;102719.44;;;4.96
37452;BMP280;23314;51.114;6.900;2023-01-28T11:33:18;102720.38;;;4.92
37452;BMP280;23314;51.114;6.900;2023-01-28T11:35:56;102736.84;;;4.88
37452;BMP280;23314;51.114;6.900;2023-01-28T11:38:23;102722.25;;;4.82
37452;BMP280;23314;51.114;6.900;2023-01-28T11:40:54;102724.88;;;4.82
37452;BMP280;23314;51.114;6.900;2023-01-28T11:43:22;102716.19;;;4.91
37452;BMP280;23314;51.114;6.900;2023-01-28T11:48:56;102725.66;;;4.83
37452;BMP280;23314;51.114;6.900;2023-01-28T11:51:35;102722.09;;;4.79
37452;BMP280;23314;51.114;6.900;2023-01-28T11:54:12;102715.84;;;4.74
37452;BMP280;23314;51.114;6.900;2023-01-28T11:56:47;102716.59;;;4.75
37452;BMP280;23314;51.114;6.900;2023-01-28T11:59:48;102709.94;;;4.78
37452;BMP280;23314;51.114;6.900;2023-01-28T12:02:32;102701.41;;;4.81
37452;BMP280;23314;51.114;6.900;2023-01-28T12:05:26;102705.56;;;4.82
37452;BMP280;23314;51.114;6.900;2023-01-28T12:08:00;102695.63;;;4.79
37452;BMP280;23314;51.114;6.900;2023-01-28T12:10:47;102699.97;;;4.83
37452;BMP280;23314;51.114;6.900;2023-01-28T12:13:52;102689.88;;;4.85
37452;BMP280;23314;51.114;6.900;2023-01-28T12:16:30;102688.94;;;4.90
37452;BMP280;23314;51.114;6.900;2023-01-28T12:21:36;102696.25;;;4.93
37452;BMP280;23314;51.114;6.900;2023-01-28T12:29:40;102699.19;;;4.83
37452;BMP280;23314;51.114;6.900;2023-01-28T12:43:05;102679.44;;;4.80
37452;BMP280;23314;51.114;6.900;2023-01-28T12:45:40;102676.31;;;4.87
37452;BMP280;23314;51.114;6.900;2023-01-28T12:48:19;102668.41;;;4.96
37452;BMP280;23314;51.114;6.900;2023-01-28T12:50:50;102667.16;;;5.02
37452;BMP280;23314;51.114;6.900;2023-01-28T12:55:49;102642.69;;;5.23
37452;BMP280;23314;51.114;6.900;2023-01-28T13:01:10;102645.16;;;5.45
37452;BMP280;23314;51.114;6.900;2023-01-28T13:03:58;102637.81;;;5.42
37452;BMP280;23314;51.114;6.900;2023-01-28T13:06:41;102643.44;;;5.41
37452;BMP280;23314;51.114;6.900;2023-01-28T13:09:15;102635.81;;;5.48
37452;BMP280;23314;51.114;6.900;2023-01-28T13:11:42;102608.81;;;5.63
37452;BMP280;23314;51.114;6.900;2023-01-28T13:14:10;102605.66;;;5.70
37452;BMP280;23314;51.114;6.900;2023-01-28T13:16:36;102602.44;;;5.64
37452;BMP280;23314;51.114;6.900;2023-01-28T13:19:23;102582.81;;;5.57
37452;BMP280;23314;51.114;6.900;2023-01-28T13:21:49;102578.97;;;5.36
37452;BMP280;23314;51.114;6.900;2023-01-28T13:31:42;102582.50;;;4.84
37452;BMP280;23314;51.114;6.900;2023-01-28T13:34:25;102599.50;;;4.74
37452;BMP280;23314;51.114;6.900;2023-01-28T13:36:51;102611.28;;;4.68
37452;BMP280;23314;51.114;6.900;2023-01-28T13:39:23;102610.38;;;4.64
37452;BMP280;23314;51.114;6.900;2023-01-28T13:41:51;102608.19;;;4.57
37452;BMP280;23314;51.114;6.900;2023-01-28T13:46:49;102618.31;;;4.64
37452;BMP280;23314;51.114;6.900;2023-01-28T13:49:17;102627.00;;;4.65
37452;BMP280;23314;51.114;6.900;2023-01-28T13:51:57;102621.56;;;4.70
37452;BMP280;23314;51.114;6.900;2023-01-28T13:54:23;102625.75;;;4.71
37452;BMP280;23314;51.114;6.900;2023-01-28T13:59:34;102616.25;;;4.70
37452;BMP280;23314;51.114;6.900;2023-01-28T14:05:01;102645.81;;;4.72
37452;BMP280;23314;51.114;6.900;2023-01-28T14:13:15;102656.84;;;4.56
37452;BMP280;23314;51.114;6.900;2023-01-28T14:18:25;102649.19;;;4.46
37452;BMP280;23314;51.114;6.900;2023-01-28T14:20:54;102652.03;;;4.50
37452;BMP280;23314;51.114;6.900;2023-01-28T14:23:21;102651.09;;;4.54
37452;BMP280;23314;51.114;6.900;2023-01-28T14:26:17;102646.44;;;4.60
37452;BMP280;23314;51.114;6.900;2023-01-28T14:29:13;102655.47;;;4.59
37452;BMP280;23314;51.114;6.900;2023-01-28T14:31:40;102645.34;;;4.61
37452;BMP280;23314;51.114;6.900;2023-01-28T14:34:18;102637.91;;;4.63
37452;BMP280;23314;51.114;6.900;2023-01-28T14:36:47;102650.81;;;4.73
37452;BMP280;23314;51.114;6.900;2023-01-28T14:39:19;102643.50;;;4.79
37452;BMP280;23314;51.114;6.900;2023-01-28T14:41:48;102635.91;;;4.78
37452;BMP280;23314;51.114;6.900;2023-01-28T14:44:37;102636.38;;;4.80
37452;BMP280;23314;51.114;6.900;2023-01-28T14:50:25;102623.28;;;4.66
37452;BMP280;23314;51.114;6.900;2023-01-28T14:55:53;102614.53;;;4.48
37452;BMP280;23314;51.114;6.900;2023-01-28T14:58:33;102618.44;;;4.41
37452;BMP280;23314;51.114;6.900;2023-01-28T15:01:00;102613.28;;;4.36
37452;BMP280;23314;51.114;6.900;2023-01-28T15:03:27;102602.22;;;4.25
37452;BMP280;23314;51.114;6.900;2023-01-28T15:06:04;102591.47;;;4.13
37452;BMP280;23314;51.114;6.900;2023-01-28T15:08:30;102591.28;;;4.01
37452;BMP280;23314;51.114;6.900;2023-01-28T15:10:57;102594.69;;;3.92
37452;BMP280;23314;51.114;6.900;2023-01-28T15:13:29;102596.00;;;3.81
37452;BMP280;23314;51.114;6.900;2023-01-28T15:15:56;102593.03;;;3.74
37452;BMP280;23314;51.114;6.900;2023-01-28T15:18:40;102586.94;;;3.64
37452;BMP280;23314;51.114;6.900;2023-01-28T15:21:06;102603.50;;;3.56
37452;BMP280;23314;51.114;6.900;2023-01-28T15:23:37;102620.09;;;3.48
37452;BMP280;23314;51.114;6.900;2023-01-28T15:26:09;102616.91;;;3.37
37452;BMP280;23314;51.114;6.900;2023-01-28T15:28:38;102612.97;;;3.26
37452;BMP280;23314;51.114;6.900;2023-01-28T15:31:04;102611.34;;;3.16
37452;BMP280;23314;51.114;6.900;2023-01-28T15:33:29;102608.16;;;3.05
37452;BMP280;23314;51.114;6.900;2023-01-28T15:35:56;102609.94;;;2.96
37452;BMP280;23314;51.114;6.900;2023-01-28T15:38:24;102613.00;;;2.89
37452;BMP280;23314;51.114;6.900;2023-01-28T15:40:55;102622.38;;;2.81
37452;BMP280;23314;51.114;6.900;2023-01-28T15:43:24;102624.94;;;2.72
37452;BMP280;23314;51.114;6.900;2023-01-28T15:45:52;102624.25;;;2.67